Time;durP1;ratioP1;P1;durP2;ratioP2;P2;SDS_P1;SDS_P2;PMS_P1;PMS_P2;Temp;Humidity;BMP_temperature;BMP_pressure;BME280_temperature;BME280_humidity;BME280_pressure;Samples;Min_cycle;Max_cycle;Signal;HPM_P1;HPM_P2
2022/11/07 00:01:59;;;;;;;6.25;2.20;;;12.00;99.90;;;;;;4996198;28;20173;-86
2022/11/07 00:04:28;;;;;;;10.27;2.47;;;12.00;99.90;;;;;;4996105;28;20168;-87
2022/11/07 00:06:54;;;;;;;7.53;2.47;;;12.10;99.90;;;;;;4996065;28;20172;-85
2022/11/07 00:09:19;;;;;;;11.95;3.45;;;12.10;99.90;;;;;;5000934;28;20189;-86
2022/11/07 00:11:45;;;;;;;2.72;2.05;;;12.10;99.90;;;;;;5015630;28;20180;-85
2022/11/07 00:14:15;;;;;;;10.20;2.22;;;12.00;99.90;;;;;;5017796;28;20172;-85
2022/11/07 00:16:41;;;;;;;9.23;2.60;;;12.00;99.90;;;;;;5017632;28;20173;-83
2022/11/07 00:19:07;;;;;;;8.00;2.60;;;12.10;99.90;;;;;;5016980;28;20208;-82
2022/11/07 00:21:33;;;;;;;5.40;2.35;;;12.00;99.90;;;;;;5001603;28;20169;-86
2022/11/07 00:23:59;;;;;;;7.50;2.78;;;12.00;99.90;;;;;;4994851;28;20176;-84
2022/11/07 00:26:24;;;;;;;5.20;1.67;;;12.00;99.90;;;;;;4995242;28;20176;-83
2022/11/07 00:28:50;;;;;;;12.10;3.08;;;12.10;99.90;;;;;;4994151;28;20196;-85
2022/11/07 00:31:16;;;;;;;5.90;2.10;;;12.10;99.90;;;;;;4993144;28;20582;-86
2022/11/07 00:33:43;;;;;;;6.38;2.10;;;12.10;99.90;;;;;;4992700;28;20177;-83
2022/11/07 00:36:14;;;;;;;8.88;2.70;;;12.10;99.90;;;;;;4994081;28;20170;-82
2022/11/07 00:38:40;;;;;;;9.43;3.00;;;12.10;99.90;;;;;;4994399;28;20275;-85
2022/11/07 00:41:06;;;;;;;11.77;2.17;;;12.10;99.90;;;;;;4995188;28;20264;-86
2022/11/07 00:43:32;;;;;;;4.55;2.28;;;12.10;99.90;;;;;;4993326;28;20500;-87
2022/11/07 00:46:01;;;;;;;16.27;2.72;;;12.20;99.90;;;;;;4994789;28;20635;-86
2022/11/07 00:48:27;;;;;;;12.05;2.85;;;12.20;99.90;;;;;;4993135;28;20189;-86
2022/11/07 00:50:53;;;;;;;8.10;2.30;;;12.30;99.90;;;;;;4993316;28;20620;-87
2022/11/07 00:53:18;;;;;;;6.40;2.20;;;12.30;99.90;;;;;;4994685;28;20276;-87
2022/11/07 00:55:44;;;;;;;22.42;3.55;;;12.30;99.90;;;;;;4993484;28;20158;-86
2022/11/07 00:58:10;;;;;;;13.75;2.63;;;12.30;99.90;;;;;;4992895;28;20189;-87
2022/11/07 01:00:36;;;;;;;9.32;2.10;;;12.40;99.90;;;;;;4994301;28;20671;-85
2022/11/07 01:05:58;;;;;;;7.30;2.13;;;12.40;99.90;;;;;;4994162;28;20188;-87
2022/11/07 01:08:24;;;;;;;16.52;2.92;;;12.50;99.90;;;;;;4993014;28;20200;-84
2022/11/07 01:10:49;;;;;;;8.65;3.35;;;12.50;99.90;;;;;;4992440;28;20649;-87
2022/11/07 01:13:15;;;;;;;16.40;2.35;;;12.60;99.90;;;;;;4992807;28;20196;-86
2022/11/07 01:15:41;;;;;;;11.07;2.25;;;12.50;99.90;;;;;;4992810;28;20272;-86
2022/11/07 01:18:06;;;;;;;7.65;2.45;;;12.50;99.90;;;;;;4992681;28;20193;-88
2022/11/07 01:20:32;;;;;;;6.15;1.83;;;12.50;99.90;;;;;;4992928;28;20251;-87
2022/11/07 01:22:58;;;;;;;10.88;2.20;;;12.60;99.90;;;;;;4993855;28;20173;-83
2022/11/07 01:25:23;;;;;;;5.22;2.00;;;12.50;99.90;;;;;;4992693;28;20571;-85
2022/11/07 01:27:49;;;;;;;10.60;2.00;;;12.60;99.90;;;;;;4993706;28;20260;-85
2022/11/07 01:30:14;;;;;;;13.15;2.08;;;12.60;99.90;;;;;;4994032;28;20180;-85
2022/11/07 01:32:40;;;;;;;13.13;2.80;;;12.70;99.90;;;;;;4992880;28;20260;-83
2022/11/07 01:35:06;;;;;;;15.38;2.53;;;12.70;99.90;;;;;;4992374;28;20173;-83
2022/11/07 01:37:31;;;;;;;9.40;1.75;;;12.60;99.90;;;;;;4994442;28;20232;-85
2022/11/07 01:39:57;;;;;;;8.85;2.20;;;12.70;99.90;;;;;;4993246;28;20232;-85
2022/11/07 01:42:23;;;;;;;8.40;2.65;;;12.80;99.90;;;;;;4993118;28;20620;-85
2022/11/07 01:44:51;;;;;;;11.52;2.67;;;12.80;99.90;;;;;;4994081;28;20582;-85
2022/11/07 01:47:17;;;;;;;15.82;2.70;;;12.70;99.90;;;;;;4993844;28;20173;-85
2022/11/07 01:49:43;;;;;;;13.15;1.95;;;12.80;99.90;;;;;;4993902;28;20263;-85
2022/11/07 01:52:12;;;;;;;7.38;2.20;;;12.80;99.90;;;;;;4992038;28;20181;-83
2022/11/07 01:54:56;;;;;;;12.25;3.15;;;12.80;99.90;;;;;;4992220;28;20264;-83
2022/11/07 01:57:28;;;;;;;9.27;2.42;;;12.70;99.90;;;;;;4993442;28;20189;-84
2022/11/07 01:59:57;;;;;;;13.30;2.00;;;12.80;99.90;;;;;;4992990;28;20209;-84
2022/11/07 02:02:25;;;;;;;17.15;2.78;;;12.80;99.90;;;;;;4992848;28;20620;-83
2022/11/07 02:04:51;;;;;;;15.65;1.98;;;12.80;99.90;;;;;;4993221;28;20208;-83
2022/11/07 02:07:22;;;;;;;9.95;2.10;;;12.70;99.90;;;;;;4993221;28;20166;-85
2022/11/07 02:09:50;;;;;;;16.95;1.88;;;12.70;99.90;;;;;;4996661;28;20172;-84
2022/11/07 02:12:17;;;;;;;10.52;1.65;;;12.70;99.90;;;;;;4996490;28;20280;-83
2022/11/07 02:14:43;;;;;;;6.20;2.08;;;12.70;99.90;;;;;;4995637;28;20607;-85
2022/11/07 02:17:12;;;;;;;4.38;2.03;;;12.70;99.90;;;;;;4996532;28;20252;-83
2022/11/07 02:19:44;;;;;;;15.77;2.35;;;12.80;99.90;;;;;;4995371;28;20201;-84
2022/11/07 02:22:29;;;;;;;16.00;2.55;;;12.80;99.90;;;;;;4996872;28;20624;-84
2022/11/07 02:24:58;;;;;;;18.02;2.10;;;12.80;99.90;;;;;;4995647;28;20173;-83
2022/11/07 02:27:27;;;;;;;8.70;1.95;;;12.70;99.90;;;;;;4996419;28;20227;-84
2022/11/07 02:29:57;;;;;;;16.02;2.75;;;12.60;99.90;;;;;;4996782;28;20706;-83
2022/11/07 02:32:23;;;;;;;16.23;3.03;;;12.50;99.90;;;;;;4996961;28;20639;-84
2022/11/07 02:35:00;;;;;;;13.32;2.15;;;12.60;99.90;;;;;;4996064;28;20177;-84
2022/11/07 02:37:32;;;;;;;15.35;2.15;;;12.70;99.90;;;;;;4995716;28;20189;-85
2022/11/07 02:40:00;;;;;;;17.15;2.28;;;12.70;99.90;;;;;;4997186;28;20189;-85
2022/11/07 02:42:42;;;;;;;5.03;1.38;;;12.70;99.90;;;;;;4995634;28;20170;-84
2022/11/07 02:45:16;;;;;;;19.40;3.00;;;12.70;99.90;;;;;;4996922;28;20667;-84
2022/11/07 02:47:42;;;;;;;9.63;2.05;;;12.70;99.90;;;;;;4995393;28;20188;-83
2022/11/07 02:50:10;;;;;;;15.73;2.95;;;12.70;99.90;;;;;;4996711;28;20171;-83
2022/11/07 02:52:35;;;;;;;10.35;1.80;;;12.80;99.90;;;;;;4995182;28;20216;-81
2022/11/07 02:55:03;;;;;;;8.32;2.20;;;12.80;99.90;;;;;;4997656;28;20881;-84
2022/11/07 02:57:28;;;;;;;9.70;2.45;;;12.80;99.90;;;;;;4998240;28;20212;-83
2022/11/07 02:59:54;;;;;;;13.00;2.20;;;12.90;99.90;;;;;;4997097;28;20724;-84
2022/11/07 03:02:20;;;;;;;16.33;2.80;;;12.90;99.90;;;;;;4996175;28;20223;-80
2022/11/07 03:04:46;;;;;;;8.48;1.90;;;13.00;99.90;;;;;;4995505;28;20654;-81
2022/11/07 03:07:11;;;;;;;20.83;2.85;;;13.00;99.90;;;;;;4995678;28;20650;-81
2022/11/07 03:09:37;;;;;;;9.40;2.10;;;13.10;99.90;;;;;;4994518;28;20181;-86
2022/11/07 03:12:02;;;;;;;16.48;3.03;;;13.10;99.90;;;;;;4994820;28;20169;-83
2022/11/07 03:14:28;;;;;;;19.58;2.88;;;13.00;99.90;;;;;;4994343;28;20704;-82
2022/11/07 03:16:53;;;;;;;8.15;1.73;;;12.90;99.90;;;;;;4995565;28;20256;-85
2022/11/07 03:19:19;;;;;;;5.78;2.20;;;12.80;99.90;;;;;;4994960;28;20566;-82
2022/11/07 03:21:45;;;;;;;11.15;1.92;;;12.80;99.90;;;;;;4994541;28;20212;-83
2022/11/07 03:24:10;;;;;;;14.18;2.40;;;12.70;99.90;;;;;;4995752;28;20165;-82
2022/11/07 03:26:36;;;;;;;13.95;2.30;;;12.70;99.90;;;;;;4995525;28;20534;-83
2022/11/07 03:29:01;;;;;;;10.65;2.70;;;12.70;99.90;;;;;;4994306;28;20212;-81
2022/11/07 03:31:45;;;;;;;8.48;2.40;;;12.90;99.90;;;;;;4995527;28;20575;-86
2022/11/07 03:34:11;;;;;;;10.02;2.20;;;12.80;99.90;;;;;;4995257;28;20169;-85
2022/11/07 03:36:36;;;;;;;9.82;2.17;;;12.70;99.90;;;;;;5009716;28;20227;-81
2022/11/07 03:39:02;;;;;;;11.88;2.05;;;12.80;99.90;;;;;;5014608;28;20254;-80
2022/11/07 03:41:28;;;;;;;19.35;2.20;;;12.90;99.90;;;;;;5014728;28;20179;-85
2022/11/07 03:43:54;;;;;;;10.35;2.20;;;12.80;99.90;;;;;;5015137;28;20192;-82
2022/11/07 03:46:19;;;;;;;10.30;2.50;;;12.90;99.90;;;;;;5014692;28;20173;-86
2022/11/07 03:48:45;;;;;;;20.63;2.28;;;13.00;99.90;;;;;;5012868;28;20247;-83
2022/11/07 03:51:13;;;;;;;12.52;2.83;;;12.90;99.90;;;;;;5014372;28;20173;-82
2022/11/07 03:53:39;;;;;;;19.40;3.63;;;12.70;99.90;;;;;;5015704;28;20184;-80
2022/11/07 03:56:07;;;;;;;11.30;3.05;;;12.70;99.90;;;;;;5013715;28;20176;-84
2022/11/07 03:58:33;;;;;;;13.55;3.03;;;12.70;99.90;;;;;;5012715;28;20731;-81
2022/11/07 04:00:59;;;;;;;13.10;3.25;;;12.80;99.90;;;;;;5013284;28;20200;-82
2022/11/07 04:03:25;;;;;;;11.18;3.47;;;12.80;99.90;;;;;;5013258;28;20646;-83
2022/11/07 04:05:59;;;;;;;21.50;3.83;;;12.90;99.90;;;;;;5013152;28;20306;-84
2022/11/07 04:08:25;;;;;;;13.27;3.90;;;12.90;99.90;;;;;;5013006;28;20705;-80
2022/11/07 04:10:50;;;;;;;23.75;4.43;;;12.90;99.90;;;;;;5013267;28;20180;-85
2022/11/07 04:18:44;;;;;;;14.75;3.25;;;13.10;99.90;;;;;;5014430;28;20188;-84
2022/11/07 04:21:09;;;;;;;9.95;3.20;;;13.10;99.90;;;;;;5013782;28;20600;-82
2022/11/07 04:23:35;;;;;;;22.17;3.38;;;13.20;99.90;;;;;;5012766;28;20165;-82
2022/11/07 04:28:45;;;;;;;11.18;3.05;;;13.10;99.90;;;;;;5014176;28;20227;-86
2022/11/07 04:31:10;;;;;;;14.07;2.85;;;13.20;99.90;;;;;;5013498;28;20634;-86
2022/11/07 04:33:36;;;;;;;7.05;2.70;;;13.10;99.90;;;;;;5013145;28;20271;-85
2022/11/07 04:36:01;;;;;;;12.68;2.35;;;13.10;99.90;;;;;;5014454;28;20176;-84
2022/11/07 04:38:27;;;;;;;7.13;2.05;;;13.10;99.90;;;;;;5013506;28;20192;-87
2022/11/07 04:40:54;;;;;;;16.73;2.90;;;13.20;99.90;;;;;;5030006;28;20248;-84
2022/11/07 04:43:21;;;;;;;11.90;2.17;;;13.20;99.90;;;;;;5014366;28;20165;-86
2022/11/07 04:45:46;;;;;;;14.48;2.58;;;13.20;99.90;;;;;;5013253;28;20596;-87
2022/11/07 04:48:12;;;;;;;14.43;2.13;;;13.20;99.90;;;;;;5014248;28;20180;-86
2022/11/07 04:50:38;;;;;;;19.15;3.47;;;13.10;99.90;;;;;;5014265;28;20175;-86
2022/11/07 04:53:03;;;;;;;11.63;2.60;;;13.10;99.90;;;;;;5014627;28;20184;-86
2022/11/07 04:55:29;;;;;;;10.48;1.55;;;13.10;99.90;;;;;;5012771;28;20165;-86
2022/11/07 04:57:55;;;;;;;19.13;2.10;;;13.10;99.90;;;;;;5014587;28;20646;-87
2022/11/07 05:00:22;;;;;;;13.95;2.35;;;13.10;99.90;;;;;;5014095;28;20219;-86
2022/11/07 05:02:48;;;;;;;14.50;2.78;;;13.10;99.90;;;;;;5029541;28;20697;-86
2022/11/07 05:05:16;;;;;;;13.27;1.83;;;13.20;99.90;;;;;;5014147;28;20231;-86
2022/11/07 05:07:42;;;;;;;16.45;2.17;;;13.10;99.90;;;;;;5012768;28;20196;-85
2022/11/07 05:10:15;;;;;;;13.63;1.83;;;13.20;99.90;;;;;;5013111;28;20160;-86
2022/11/07 05:12:40;;;;;;;13.18;2.20;;;13.20;99.90;;;;;;5013014;28;20184;-86
2022/11/07 05:15:06;;;;;;;17.00;2.80;;;13.10;99.90;;;;;;5029207;28;20176;-84
2022/11/07 05:17:32;;;;;;;13.02;2.35;;;13.10;99.90;;;;;;5013673;28;20674;-86
2022/11/07 05:19:57;;;;;;;6.65;1.90;;;13.10;99.90;;;;;;5013597;28;20211;-84
2022/11/07 05:25:07;;;;;;;15.38;2.83;;;13.10;99.90;;;;;;5013837;28;20298;-86
2022/11/07 05:27:33;;;;;;;13.82;2.50;;;13.00;99.90;;;;;;5012394;28;20225;-86
2022/11/07 05:29:59;;;;;;;16.42;2.50;;;13.00;99.90;;;;;;5013468;28;20176;-83
2022/11/07 05:32:24;;;;;;;12.55;2.22;;;13.00;99.90;;;;;;5012806;28;20156;-84
2022/11/07 05:34:50;;;;;;;11.38;1.80;;;13.10;99.90;;;;;;5012621;28;20255;-85
2022/11/07 05:37:15;;;;;;;11.77;1.90;;;13.10;99.90;;;;;;5013448;28;20525;-85
2022/11/07 05:39:41;;;;;;;12.40;2.35;;;13.10;99.90;;;;;;5013320;28;20201;-81
2022/11/07 05:42:06;;;;;;;11.90;2.25;;;13.20;99.90;;;;;;5014333;28;20565;-81
2022/11/07 05:44:32;;;;;;;19.27;2.75;;;13.30;99.90;;;;;;5015555;28;20222;-82
2022/11/07 05:46:58;;;;;;;9.85;1.85;;;13.20;99.90;;;;;;5016993;28;20535;-85
2022/11/07 05:49:25;;;;;;;11.27;2.55;;;13.10;99.90;;;;;;5016803;28;20290;-84
2022/11/07 05:51:50;;;;;;;17.58;2.97;;;13.30;99.90;;;;;;5016656;28;20173;-82
2022/11/07 05:54:16;;;;;;;17.70;2.63;;;13.20;99.90;;;;;;5015493;28;20185;-82
2022/11/07 05:56:44;;;;;;;10.68;1.60;;;13.10;99.90;;;;;;5016519;28;20175;-83
2022/11/07 05:59:11;;;;;;;16.95;1.75;;;13.20;99.90;;;;;;5014678;28;20200;-81
2022/11/07 06:01:36;;;;;;;8.82;1.92;;;13.20;99.90;;;;;;5016073;28;20167;-82
2022/11/07 06:04:03;;;;;;;13.35;1.90;;;13.30;99.90;;;;;;5015823;28;20255;-83
2022/11/07 06:06:30;;;;;;;22.13;2.53;;;13.20;99.90;;;;;;5016823;28;20169;-82
2022/11/07 06:08:59;;;;;;;21.90;2.33;;;13.30;99.90;;;;;;5016211;28;20195;-82
2022/11/07 06:11:24;;;;;;;12.15;2.30;;;13.30;99.90;;;;;;5015809;28;20169;-82
2022/11/07 06:13:55;;;;;;;12.43;1.63;;;13.20;99.90;;;;;;5016873;28;20320;-84
2022/11/07 06:16:21;;;;;;;15.38;1.85;;;13.20;99.90;;;;;;5014934;28;20207;-84
2022/11/07 06:18:46;;;;;;;11.57;1.55;;;13.20;99.90;;;;;;5014690;28;20193;-82
2022/11/07 06:21:12;;;;;;;17.73;2.13;;;13.30;99.90;;;;;;5016088;28;20205;-82
2022/11/07 06:23:38;;;;;;;9.93;2.90;;;13.40;99.90;;;;;;5016510;28;20199;-81
2022/11/07 06:26:04;;;;;;;15.23;3.08;;;13.40;99.90;;;;;;5014062;28;20211;-84
2022/11/07 06:28:29;;;;;;;6.60;1.67;;;13.30;99.90;;;;;;5015249;28;20694;-82
2022/11/07 06:30:59;;;;;;;16.83;2.28;;;13.20;99.90;;;;;;5015183;28;20184;-86
2022/11/07 06:33:24;;;;;;;7.53;1.55;;;13.20;99.90;;;;;;5016381;28;20643;-84
2022/11/07 06:35:50;;;;;;;12.75;2.58;;;13.20;99.90;;;;;;5016137;28;20252;-86
2022/11/07 06:38:16;;;;;;;19.67;2.55;;;13.20;99.90;;;;;;5016432;28;20239;-82
2022/11/07 06:40:42;;;;;;;14.07;2.35;;;13.20;99.90;;;;;;5017180;28;20215;-86
2022/11/07 06:43:09;;;;;;;10.65;2.10;;;13.30;99.90;;;;;;5016337;28;20175;-82
2022/11/07 06:45:41;;;;;;;9.93;2.35;;;13.40;99.90;;;;;;5014574;28;20176;-85
2022/11/07 06:48:07;;;;;;;20.98;2.92;;;13.40;99.90;;;;;;5015535;28;20173;-82
2022/11/07 06:50:33;;;;;;;14.68;2.30;;;13.30;99.90;;;;;;5016086;28;20175;-80
2022/11/07 06:53:07;;;;;;;17.63;2.13;;;13.20;99.90;;;;;;5014826;28;20634;-82
2022/11/07 06:55:34;;;;;;;20.15;2.47;;;13.30;99.90;;;;;;5014363;28;20184;-82
2022/11/07 06:58:00;;;;;;;7.35;2.17;;;13.30;99.90;;;;;;5013341;28;20184;-81
2022/11/07 07:00:30;;;;;;;14.88;2.72;;;13.30;99.90;;;;;;5013237;28;20617;-81
2022/11/07 07:05:21;;;;;;;19.17;2.83;;;13.30;99.90;;;;;;5014797;28;20165;-82
2022/11/07 07:07:47;;;;;;;11.55;2.47;;;13.30;99.90;;;;;;5014333;28;20185;-82
2022/11/07 07:10:13;;;;;;;16.13;3.42;;;13.30;99.90;;;;;;5014479;28;20271;-81
2022/11/07 07:12:39;;;;;;;7.05;1.50;;;13.40;99.90;;;;;;5013592;28;20669;-81
2022/11/07 07:15:05;;;;;;;10.73;2.70;;;13.40;99.90;;;;;;5013608;28;20186;-84
2022/11/07 07:17:31;;;;;;;9.75;2.13;;;13.30;99.90;;;;;;5014398;28;20729;-82
2022/11/07 07:19:57;;;;;;;9.30;2.42;;;13.30;99.90;;;;;;5013208;28;20700;-82
2022/11/07 07:22:23;;;;;;;15.10;2.03;;;13.50;99.90;;;;;;5014887;28;20168;-84
2022/11/07 07:24:50;;;;;;;10.23;2.25;;;13.50;99.90;;;;;;5012309;28;20637;-83
2022/11/07 07:27:16;;;;;;;11.40;2.92;;;13.50;99.90;;;;;;5013008;28;20165;-82
2022/11/07 07:29:42;;;;;;;13.50;3.00;;;13.40;99.90;;;;;;5012454;28;20218;-80
2022/11/07 07:32:07;;;;;;;16.67;2.38;;;13.50;99.90;;;;;;5012568;28;20598;-80
2022/11/07 07:34:33;;;;;;;21.55;2.65;;;13.50;99.90;;;;;;5012672;28;20712;-83
2022/11/07 07:36:58;;;;;;;17.80;2.00;;;13.50;99.90;;;;;;5014125;28;20235;-82
2022/11/07 07:39:26;;;;;;;7.63;2.20;;;13.60;99.90;;;;;;5012887;28;20204;-82
2022/11/07 07:41:52;;;;;;;15.13;3.00;;;13.60;99.90;;;;;;5013939;28;20168;-82
2022/11/07 07:44:17;;;;;;;16.00;2.70;;;13.80;99.90;;;;;;5012596;28;20176;-80
2022/11/07 07:46:43;;;;;;;9.27;2.22;;;13.70;99.90;;;;;;5012427;28;20271;-80
2022/11/07 07:49:09;;;;;;;23.98;3.17;;;13.70;99.90;;;;;;5013666;28;20223;-81
2022/11/07 07:51:34;;;;;;;6.95;2.40;;;13.70;99.90;;;;;;5013911;28;20176;-81
2022/11/07 07:54:00;;;;;;;13.18;2.67;;;13.70;99.90;;;;;;5012600;28;20242;-85
2022/11/07 07:56:26;;;;;;;14.40;2.83;;;13.60;99.90;;;;;;5006372;28;20187;-82
2022/11/07 07:58:52;;;;;;;23.42;2.78;;;13.70;99.90;;;;;;5008669;28;20197;-82
2022/11/07 08:01:18;;;;;;;9.48;2.80;;;13.80;99.90;;;;;;4993096;28;20687;-86
2022/11/07 08:03:43;;;;;;;14.57;2.42;;;13.80;99.90;;;;;;4994339;28;20173;-86
2022/11/07 08:06:09;;;;;;;21.65;2.47;;;14.00;99.90;;;;;;4995404;28;20173;-82
2022/11/07 08:08:35;;;;;;;11.30;2.00;;;14.10;99.90;;;;;;5002771;28;20192;-85
2022/11/07 08:11:02;;;;;;;13.75;2.42;;;14.10;99.90;;;;;;5007507;28;20168;-85
2022/11/07 08:13:29;;;;;;;12.65;2.47;;;14.00;99.90;;;;;;5013005;28;20173;-89
2022/11/07 08:15:55;;;;;;;10.10;2.58;;;14.10;99.90;;;;;;5013436;28;20634;-85
2022/11/07 08:18:22;;;;;;;19.05;2.60;;;14.10;99.90;;;;;;5014566;28;20203;-86
2022/11/07 08:20:52;;;;;;;13.38;2.13;;;14.00;99.90;;;;;;5010727;28;20264;-86
2022/11/07 08:23:19;;;;;;;10.88;2.58;;;13.90;99.90;;;;;;5013559;28;20173;-81
2022/11/07 08:25:58;;;;;;;17.80;2.50;;;13.90;99.90;;;;;;5011683;28;20204;-85
2022/11/07 08:28:26;;;;;;;20.98;3.20;;;14.10;99.90;;;;;;5006878;28;20201;-84
2022/11/07 08:31:05;;;;;;;10.77;2.10;;;14.10;99.90;;;;;;4995150;28;20205;-83
2022/11/07 08:33:30;;;;;;;12.30;2.33;;;14.10;99.90;;;;;;4995332;28;20258;-85
2022/11/07 08:36:01;;;;;;;15.98;2.28;;;14.40;99.90;;;;;;4995021;28;20567;-82
2022/11/07 08:38:36;;;;;;;10.95;2.53;;;14.40;99.90;;;;;;5056740;28;20920;-81
2022/11/07 08:41:03;;;;;;;8.90;2.70;;;14.50;99.90;;;;;;5049747;28;20175;-82
2022/11/07 08:43:28;;;;;;;11.98;2.72;;;14.40;99.90;;;;;;5049592;28;20261;-81
2022/11/07 08:45:54;;;;;;;15.57;2.90;;;14.50;99.90;;;;;;5048621;28;20323;-78
2022/11/07 08:48:21;;;;;;;25.85;3.58;;;14.40;99.90;;;;;;5046907;28;20233;-82
2022/11/07 08:50:52;;;;;;;21.38;3.17;;;14.30;99.90;;;;;;5047815;28;20265;-81
2022/11/07 08:53:17;;;;;;;8.13;2.47;;;14.40;99.90;;;;;;5059155;28;20253;-81
2022/11/07 08:55:43;;;;;;;13.05;3.03;;;14.40;99.90;;;;;;5069389;28;20658;-81
2022/11/07 08:58:10;;;;;;;10.13;2.17;;;14.50;99.90;;;;;;5068347;28;20256;-81
2022/11/07 09:00:36;;;;;;;14.27;2.45;;;14.50;99.90;;;;;;5069325;28;20171;-80
2022/11/07 09:03:03;;;;;;;25.55;3.72;;;14.60;99.90;;;;;;5067709;28;20608;-84
2022/11/07 09:05:29;;;;;;;12.88;2.47;;;14.70;99.90;;;;;;5057599;28;20175;-79
2022/11/07 09:07:55;;;;;;;17.38;2.60;;;14.70;99.90;;;;;;5049049;28;20592;-82
2022/11/07 09:10:20;;;;;;;10.27;2.30;;;14.80;99.90;;;;;;5048529;28;20616;-86
2022/11/07 09:12:48;;;;;;;5.70;1.83;;;14.70;99.90;;;;;;5048955;28;20171;-80
2022/11/07 09:15:14;;;;;;;12.27;2.47;;;14.70;99.90;;;;;;5048035;28;20655;-82
2022/11/07 09:17:40;;;;;;;10.10;2.15;;;14.80;99.90;;;;;;5048883;28;20830;-81
2022/11/07 09:20:07;;;;;;;13.15;2.05;;;14.90;99.90;;;;;;5048670;28;20195;-84
2022/11/07 09:22:33;;;;;;;15.90;1.85;;;14.80;99.90;;;;;;5068808;28;20201;-85
2022/11/07 09:24:58;;;;;;;11.90;3.10;;;14.90;99.90;;;;;;5069011;28;20167;-85
2022/11/07 09:27:24;;;;;;;14.52;2.78;;;14.90;99.90;;;;;;5068685;28;20190;-87
2022/11/07 09:29:49;;;;;;;18.67;2.08;;;15.10;99.90;;;;;;5069156;28;20619;-86
2022/11/07 09:32:15;;;;;;;11.63;2.10;;;15.00;99.90;;;;;;5068814;28;20670;-87
2022/11/07 09:34:43;;;;;;;9.23;2.10;;;15.10;99.90;;;;;;5068628;28;20174;-89
2022/11/07 09:37:09;;;;;;;10.00;2.22;;;15.30;99.90;;;;;;5044030;28;20219;-82
2022/11/07 09:39:35;;;;;;;10.88;2.50;;;15.30;99.90;;;;;;5044696;28;20258;-80
2022/11/07 09:42:31;;;;;;;13.55;2.25;;;15.20;99.90;;;;;;5037451;28;20226;-80
2022/11/07 09:44:58;;;;;;;22.15;2.42;;;15.40;99.90;;;;;;5039490;28;20172;-79
2022/11/07 09:47:24;;;;;;;14.40;2.17;;;15.40;99.90;;;;;;5047148;28;20187;-79
2022/11/07 09:49:58;;;;;;;13.63;2.50;;;15.50;99.90;;;;;;5056845;28;20240;-80
2022/11/07 09:52:37;;;;;;;27.20;3.53;;;15.70;99.90;;;;;;5054609;28;20167;-79
2022/11/07 09:55:22;;;;;;;12.18;2.17;;;15.80;99.90;;;;;;5052275;28;20163;-80
2022/11/07 09:57:49;;;;;;;11.52;2.08;;;15.90;99.90;;;;;;5054478;28;20733;-80
2022/11/07 10:00:19;;;;;;;6.35;1.85;;;16.10;99.90;;;;;;5056665;28;20221;-79
2022/11/07 10:02:52;;;;;;;12.60;1.90;;;16.20;99.90;;;;;;5050634;28;20648;-80
2022/11/07 10:05:28;;;;;;;13.45;2.70;;;16.20;99.90;;;;;;5036328;28;20168;-80
2022/11/07 10:08:04;;;;;;;14.77;2.13;;;16.10;99.90;;;;;;5036765;28;20187;-80
2022/11/07 10:10:43;;;;;;;9.77;1.70;;;15.80;99.90;;;;;;5035777;28;20198;-80
2022/11/07 10:13:37;;;;;;;12.43;2.45;;;15.60;99.90;;;;;;5044022;28;20201;-80
2022/11/07 10:16:31;;;;;;;7.53;1.65;;;15.50;99.90;;;;;;5054565;28;20628;-80
2022/11/07 10:19:24;;;;;;;4.60;1.58;;;15.60;99.90;;;;;;5054595;28;20679;-80
2022/11/07 10:22:05;;;;;;;10.45;1.63;;;15.70;99.90;;;;;;5054697;28;20186;-80
2022/11/07 10:24:55;;;;;;;10.23;2.33;;;15.50;99.90;;;;;;5029748;28;20168;-80
2022/11/07 10:27:24;;;;;;;19.27;2.85;;;15.60;99.90;;;;;;5028785;28;20241;-80
2022/11/07 10:29:53;;;;;;;15.38;2.97;;;15.60;99.90;;;;;;5054811;28;20261;-80
2022/11/07 10:32:32;;;;;;;10.32;3.22;;;15.70;99.90;;;;;;5053954;28;20159;-80
2022/11/07 10:35:17;;;;;;;17.70;3.78;;;15.80;99.90;;;;;;5054393;28;20171;-80
2022/11/07 10:37:51;;;;;;;12.55;2.33;;;16.00;99.90;;;;;;5056294;28;20261;-80
2022/11/07 10:40:20;;;;;;;8.90;2.13;;;16.00;99.90;;;;;;5057646;28;20206;-83
2022/11/07 10:42:47;;;;;;;11.32;1.70;;;15.80;99.90;;;;;;5055248;28;20195;-81
2022/11/07 10:45:14;;;;;;;14.45;2.65;;;15.70;99.90;;;;;;5056240;28;20167;-87
2022/11/07 10:47:40;;;;;;;9.88;1.88;;;15.90;99.90;;;;;;5057936;28;20193;-81
2022/11/07 10:50:32;;;;;;;7.90;1.85;;;16.10;99.90;;;;;;5057709;28;20872;-81
2022/11/07 10:53:08;;;;;;;11.32;2.78;;;16.30;99.90;;;;;;5057752;28;20647;-81
2022/11/07 10:55:54;;;;;;;6.07;1.45;;;16.10;99.90;;;;;;5060916;28;20163;-80
2022/11/07 10:58:21;;;;;;;10.27;1.58;;;16.10;99.90;;;;;;5060191;28;20226;-82
2022/11/07 11:01:09;;;;;;;10.30;2.30;;;16.20;99.90;;;;;;5056528;28;20171;-81
2022/11/07 11:03:42;;;;;;;11.98;2.75;;;16.20;99.90;;;;;;5055216;28;20167;-80
2022/11/07 11:06:27;;;;;;;16.00;2.88;;;16.20;99.90;;;;;;5055591;28;20167;-80
2022/11/07 11:08:53;;;;;;;9.57;3.55;;;16.30;99.90;;;;;;5065592;28;20175;-80
2022/11/07 11:11:31;;;;;;;11.13;2.05;;;16.40;99.90;;;;;;5072813;28;20198;-81
2022/11/07 11:14:04;;;;;;;10.60;2.45;;;16.40;99.90;;;;;;5053909;28;20174;-79
2022/11/07 11:16:33;;;;;;;13.07;2.22;;;16.40;99.90;;;;;;5055836;28;20171;-80
2022/11/07 11:19:00;;;;;;;7.32;2.40;;;16.40;99.90;;;;;;5058351;28;20329;-82
2022/11/07 11:21:25;;;;;;;7.45;3.15;;;16.40;99.90;;;;;;5059438;28;20293;-81
2022/11/07 11:23:53;;;;;;;13.32;2.30;;;16.30;99.90;;;;;;5056302;28;20195;-80
2022/11/07 11:26:39;;;;;;;12.75;2.10;;;16.30;99.90;;;;;;5060254;28;20174;-80
2022/11/07 11:29:10;;;;;;;11.88;1.92;;;16.40;99.90;;;;;;5059503;28;20187;-82
2022/11/07 11:31:42;;;;;;;9.85;2.17;;;16.40;99.90;;;;;;5057036;28;20246;-80
2022/11/07 11:34:35;;;;;;;16.60;1.35;;;16.10;99.90;;;;;;5059407;28;20262;-79
2022/11/07 11:37:12;;;;;;;7.47;1.65;;;16.00;99.90;;;;;;5056821;28;20293;-81
2022/11/07 11:39:48;;;;;;;8.73;2.08;;;15.90;99.90;;;;;;5055916;28;20572;-80
2022/11/07 11:42:30;;;;;;;15.52;2.35;;;16.10;99.90;;;;;;5056862;28;20209;-81
2022/11/07 11:45:02;;;;;;;4.88;1.35;;;16.20;99.90;;;;;;5074790;28;20201;-81
2022/11/07 11:47:35;;;;;;;8.23;2.85;;;16.00;99.90;;;;;;5072375;28;20220;-81
2022/11/07 11:50:17;;;;;;;8.32;2.38;;;15.90;99.90;;;;;;5066168;28;20171;-82
2022/11/07 11:52:44;;;;;;;8.93;2.50;;;15.90;99.90;;;;;;5067179;28;20179;-81
2022/11/07 11:55:15;;;;;;;11.05;1.77;;;16.00;99.90;;;;;;5068212;28;20194;-80
2022/11/07 11:58:05;;;;;;;8.98;1.70;;;16.10;99.90;;;;;;5054937;28;20270;-80
2022/11/07 12:00:38;;;;;;;9.50;2.20;;;16.10;99.90;;;;;;5055831;28;20174;-80
2022/11/07 12:03:22;;;;;;;10.38;2.63;;;16.10;99.90;;;;;;5073625;28;20173;-80
2022/11/07 12:05:47;;;;;;;11.02;2.55;;;16.20;99.90;;;;;;5069512;28;20174;-81
2022/11/07 12:08:13;;;;;;;9.25;1.77;;;16.30;99.90;;;;;;5062285;28;20250;-80
2022/11/07 12:11:05;;;;;;;16.88;1.92;;;16.30;99.90;;;;;;5070376;28;20163;-81
2022/11/07 12:13:56;;;;;;;10.13;2.60;;;16.20;99.90;;;;;;5067513;28;20166;-82
2022/11/07 12:16:30;;;;;;;7.18;2.47;;;16.40;99.90;;;;;;5065777;28;20264;-80
2022/11/07 12:19:16;;;;;;;12.73;2.42;;;16.30;99.90;;;;;;5067458;28;20195;-81
2022/11/07 12:21:42;;;;;;;6.90;1.85;;;16.20;99.90;;;;;;5069281;28;20729;-81
2022/11/07 12:24:29;;;;;;;13.57;2.58;;;16.30;99.90;;;;;;5063774;28;20181;-81
2022/11/07 12:27:05;;;;;;;11.15;2.03;;;16.40;99.90;;;;;;5065181;28;20175;-82
2022/11/07 12:29:52;;;;;;;17.95;2.85;;;16.50;99.90;;;;;;5072221;28;20149;-81
2022/11/07 12:32:45;;;;;;;9.48;2.20;;;16.60;99.90;;;;;;5070327;28;20177;-86
2022/11/07 12:35:32;;;;;;;9.82;1.98;;;16.50;99.90;;;;;;5073423;28;20170;-85
2022/11/07 12:38:07;;;;;;;6.43;1.65;;;16.40;99.90;;;;;;5055178;28;20631;-85
2022/11/07 12:40:57;;;;;;;15.52;3.00;;;16.30;99.90;;;;;;5055768;28;20249;-85
2022/11/07 12:43:28;;;;;;;14.73;2.35;;;16.50;99.90;;;;;;5050989;28;20171;-82
2022/11/07 12:45:54;;;;;;;17.92;2.08;;;16.70;99.90;;;;;;5030983;28;20179;-84
2022/11/07 12:48:42;;;;;;;14.88;2.60;;;16.80;99.90;;;;;;5032758;28;20279;-81
2022/11/07 12:51:21;;;;;;;12.48;2.10;;;17.00;99.90;;;;;;5033298;28;20678;-82
2022/11/07 12:54:07;;;;;;;11.80;2.90;;;17.00;99.90;;;;;;5036702;28;20167;-87
2022/11/07 12:56:36;;;;;;;11.90;2.50;;;17.00;99.90;;;;;;5033336;28;20590;-82
2022/11/07 12:59:08;;;;;;;13.35;2.88;;;17.00;99.90;;;;;;5032125;28;20246;-86
2022/11/07 13:02:07;;;;;;;5.13;1.48;;;17.00;99.90;;;;;;5031585;28;20168;-83
2022/11/07 13:04:42;;;;;;;10.23;2.05;;;17.00;99.90;;;;;;5016772;28;20207;-85
2022/11/07 13:07:30;;;;;;;4.85;2.15;;;17.10;99.90;;;;;;5019026;28;20660;-83
2022/11/07 13:10:02;;;;;;;5.60;1.95;;;17.10;99.90;;;;;;5014853;28;20290;-88